Time;durP1;ratioP1;P1;durP2;ratioP2;P2;SDS_P1;SDS_P2;PMS_P1;PMS_P2;Temp;Humidity;BMP_temperature;BMP_pressure;BME280_temperature;BME280_humidity;BME280_pressure;Samples;Min_cycle;Max_cycle;Signal;HPM_P1;HPM_P2
2024/01/30 00:04:25;;;;;;;32.50;23.23;;;;;;;6.55;47.12;101038.31;10404001;28;20433;-43
2024/01/30 00:09:27;;;;;;;19.13;15.77;;;;;;;4.97;50.46;101241.84;10409450;28;20247;-43
2024/01/30 00:14:28;;;;;;;18.57;14.97;;;;;;;4.97;50.80;101156.94;10408427;28;20639;-43
2024/01/30 00:19:30;;;;;;;18.30;14.87;;;;;;;5.45;51.38;100955.94;10405311;28;20667;-43
2024/01/30 00:24:32;;;;;;;19.13;16.40;;;;;;;5.32;51.61;100982.59;10405690;28;20229;-43
2024/01/30 00:29:34;;;;;;;25.03;17.37;;;;;;;5.06;51.62;101050.94;10401556;28;20229;-43
2024/01/30 00:34:35;;;;;;;19.80;16.47;;;;;;;5.79;50.92;100932.00;10404780;28;20331;-43
2024/01/30 00:39:38;;;;;;;19.20;15.50;;;;;;;5.04;51.98;101058.19;10402643;28;20236;-43
2024/01/30 00:44:39;;;;;;;18.40;15.17;;;;;;;5.60;50.54;101072.53;10407671;28;20956;-43
2024/01/30 00:49:41;;;;;;;20.13;15.33;;;;;;;6.67;49.58;100910.56;10407507;28;20310;-43
2024/01/30 00:54:43;;;;;;;16.47;14.43;;;;;;;6.96;48.62;100908.09;10390017;28;20245;-43
2024/01/30 00:59:46;;;;;;;21.00;16.17;;;;;;;5.65;52.00;100927.78;10408350;28;20243;-43
2024/01/30 01:04:48;;;;;;;16.53;13.87;;;;;;;6.15;49.44;101152.38;10402640;28;20243;-43
2024/01/30 01:09:49;;;;;;;18.97;14.27;;;;;;;6.26;49.77;101038.03;10401172;28;20314;-43
2024/01/30 01:14:51;;;;;;;19.37;15.20;;;;;;;6.20;49.78;101103.19;10405284;28;20242;-43
2024/01/30 01:19:53;;;;;;;17.67;14.50;;;;;;;6.37;50.20;100970.69;10402141;28;20743;-43
2024/01/30 01:24:55;;;;;;;17.10;14.50;;;;;;;5.69;51.45;101027.50;10403858;28;20602;-43
2024/01/30 01:29:57;;;;;;;18.00;14.33;;;;;;;6.18;50.21;100958.09;10405511;28;20243;-42
2024/01/30 01:34:58;;;;;;;20.73;15.83;;;;;;;6.05;49.78;101040.63;10402797;28;20761;-43
2024/01/30 01:40:00;;;;;;;20.60;15.17;;;;;;;3.99;54.21;101052.63;10402722;28;20732;-43
2024/01/30 01:45:02;;;;;;;20.07;15.30;;;;;;;3.46;55.29;101166.63;10403470;28;20778;-43
2024/01/30 01:50:04;;;;;;;17.93;14.53;;;;;;;4.11;56.06;100912.31;10410359;28;20291;-43
2024/01/30 01:55:07;;;;;;;16.33;14.30;;;;;;;5.79;52.91;100811.63;10406398;28;20319;-43
2024/01/30 02:00:12;;;;;;;16.00;13.40;;;;;;;6.94;49.11;100926.03;10402589;28;20232;-43
2024/01/30 02:05:15;;;;;;;18.10;14.77;;;;;;;7.32;48.28;100922.66;10408805;28;20223;-43
2024/01/30 02:10:17;;;;;;;20.87;14.53;;;;;;;6.01;50.73;100964.75;10407057;28;20328;-43
2024/01/30 02:15:19;;;;;;;19.90;15.67;;;;;;;5.63;51.33;100995.28;10412769;28;20303;-43
2024/01/30 02:20:24;;;;;;;18.37;14.73;;;;;;;4.50;53.33;101086.06;10389685;28;20239;-43
2024/01/30 02:25:45;;;;;;;19.53;15.27;;;;;;;5.20;52.70;100927.84;10405270;28;20237;-43
2024/01/30 02:30:47;;;;;;;18.87;15.47;;;;;;;6.62;49.34;100885.19;10408028;28;20236;-43
2024/01/30 02:35:49;;;;;;;20.80;15.37;;;;;;;5.85;49.88;101029.78;10399535;28;20733;-43
2024/01/30 02:40:50;;;;;;;19.87;16.07;;;;;;;5.36;50.25;101107.97;10411132;28;20797;-43
2024/01/30 02:45:52;;;;;;;17.17;14.87;;;;;;;5.81;50.02;100939.84;10405066;28;20778;-43
2024/01/30 02:50:54;;;;;;;17.83;15.00;;;;;;;6.37;48.26;100986.66;10408407;28;20315;-43
2024/01/30 02:55:57;;;;;;;18.37;15.80;;;;;;;3.33;53.45;101319.25;10406926;28;20636;-43
2024/01/30 03:00:59;;;;;;;17.47;15.17;;;;;;;4.73;53.36;100879.34;10417609;28;20639;-43
2024/01/30 03:06:01;;;;;;;20.03;14.63;;;;;;;2.83;57.71;101041.22;10400984;28;20284;-43
2024/01/30 03:11:02;;;;;;;18.83;15.83;;;;;;;2.69;57.77;101097.66;10413254;28;20233;-43
2024/01/30 03:16:05;;;;;;;20.73;15.50;;;;;;;2.97;58.76;100933.69;10391629;28;20246;-43
2024/01/30 03:21:06;;;;;;;22.90;15.53;;;;;;;2.73;59.00;101000.47;10404514;28;20228;-43
2024/01/30 03:26:09;;;;;;;24.23;16.03;;;;;;;2.73;58.95;101071.84;10396188;28;20238;-43
2024/01/30 03:31:13;;;;;;;20.33;15.07;;;;;;;3.70;56.87;100938.22;10401759;28;20235;-43
2024/01/30 03:36:18;;;;;;;22.57;15.77;;;;;;;3.94;56.35;100932.09;10380343;28;20314;-44
2024/01/30 03:41:20;;;;;;;18.53;15.57;;;;;;;3.42;57.23;101021.38;10406370;28;20287;-41
2024/01/30 03:46:21;;;;;;;23.07;16.47;;;;;;;3.21;58.07;100998.13;10385121;28;20244;-43
2024/01/30 03:51:23;;;;;;;16.57;13.50;;;;;;;3.43;57.79;100967.53;10414139;28;20207;-40
2024/01/30 03:56:25;;;;;;;16.07;13.93;;;;;;;3.50;58.11;100917.66;10398946;28;20225;-41
2024/01/30 04:01:27;;;;;;;16.00;12.37;;;;;;;4.13;55.19;101019.81;10389652;28;20296;-40
2024/01/30 04:06:29;;;;;;;17.60;13.47;;;;;;;3.17;56.76;101126.25;10392581;28;20236;-41
2024/01/30 04:11:30;;;;;;;16.50;12.33;;;;;;;3.64;56.92;100984.50;10406403;28;20270;-41
2024/01/30 04:16:32;;;;;;;14.07;10.97;;;;;;;4.15;55.40;100967.59;10398958;28;20242;-43
2024/01/30 04:21:34;;;;;;;14.43;12.60;;;;;;;3.22;57.33;101039.47;10416270;28;20366;-43
2024/01/30 04:26:36;;;;;;;15.43;10.57;;;;;;;3.51;56.62;101010.13;9444204;28;10000047;-40
2024/01/30 04:31:38;;;;;;;12.43;9.77;;;;;;;5.05;53.49;100886.59;10288481;28;20235;-40
2024/01/30 04:36:44;;;;;;;13.70;10.37;;;;;;;3.62;55.56;101112.63;10277045;28;20250;-42
2024/01/30 04:41:46;;;;;;;14.03;11.00;;;;;;;3.02;57.02;101120.19;10275917;28;20231;-40
2024/01/30 04:46:48;;;;;;;14.67;12.13;;;;;;;4.13;54.97;100960.72;10257098;28;20248;-40
2024/01/30 04:51:50;;;;;;;14.03;11.33;;;;;;;6.29;50.44;100904.84;10280082;28;20230;-42
2024/01/30 04:56:51;;;;;;;13.20;10.30;;;;;;;5.58;50.48;101136.34;10314263;23;20274;-72
2024/01/30 05:01:53;;;;;;;14.53;10.80;;;;;;;6.16;50.14;100975.97;10378354;28;20229;-72
2024/01/30 05:06:55;;;;;;;11.83;9.63;;;;;;;5.65;51.14;100996.84;10350006;28;20240;-69
2024/01/30 05:11:58;;;;;;;14.50;10.90;;;;;;;6.32;49.30;100997.66;10347261;28;20292;-69
2024/01/30 05:16:59;;;;;;;14.47;10.97;;;;;;;6.58;48.43;101080.63;10347296;28;21176;-71
2024/01/30 05:22:01;;;;;;;12.53;11.10;;;;;;;6.03;49.01;101186.91;10370013;28;20761;-69
2024/01/30 05:27:03;;;;;;;12.77;10.10;;;;;;;6.61;49.04;101032.44;10348453;28;20236;-71
2024/01/30 05:32:08;;;;;;;15.97;11.90;;;;;;;5.65;50.75;101118.16;10359886;28;20212;-71
2024/01/30 05:37:14;;;;;;;14.97;11.43;;;;;;;5.52;50.44;101158.09;10351339;28;20226;-71
2024/01/30 05:42:16;;;;;;;14.63;11.10;;;;;;;5.64;50.01;101125.31;10357107;28;20355;-72
2024/01/30 05:47:18;;;;;;;13.67;10.97;;;;;;;5.36;50.48;101149.59;10347541;28;20722;-72
2024/01/30 05:52:20;;;;;;;16.90;12.70;;;;;;;4.82;51.54;101241.97;10351126;28;20265;-72
2024/01/30 05:57:21;;;;;;;14.70;12.63;;;;;;;6.32;48.58;101109.31;10347156;28;20240;-71
2024/01/30 06:02:23;;;;;;;14.37;12.63;;;;;;;4.96;52.44;101164.03;10352448;28;20323;-71
2024/01/30 06:07:25;;;;;;;16.47;13.47;;;;;;;4.90;52.83;101116.75;10344641;28;20243;-72
2024/01/30 06:12:28;;;;;;;16.00;12.93;;;;;;;5.74;51.14;101084.72;10354166;28;20255;-71
2024/01/30 06:17:29;;;;;;;20.80;14.73;;;;;;;5.24;52.32;101130.16;10350186;28;20236;-71
2024/01/30 06:22:31;;;;;;;18.07;15.97;;;;;;;5.16;51.54;101206.84;10351294;28;20237;-71
2024/01/30 06:27:33;;;;;;;23.80;17.50;;;;;;;5.16;51.52;101159.91;10350925;28;20333;-71
2024/01/30 06:32:38;;;;;;;22.33;17.73;;;;;;;5.19;51.17;101162.31;10359193;28;20555;-72
2024/01/30 06:37:40;;;;;;;20.40;16.20;;;;;;;4.70;51.78;101253.47;10351377;28;20236;-71
2024/01/30 06:42:41;;;;;;;20.80;16.37;;;;;;;4.91;51.69;101177.66;10356315;28;20320;-71
2024/01/30 06:47:43;;;;;;;21.47;17.00;;;;;;;5.67;51.34;101020.63;10344502;28;20238;-71
2024/01/30 06:52:45;;;;;;;21.93;17.73;;;;;;;5.56;51.06;101063.09;10352503;28;20325;-71
2024/01/30 06:57:47;;;;;;;22.23;17.90;;;;;;;5.90;50.11;101040.03;10349060;28;20248;-71
2024/01/30 07:02:50;;;;;;;22.87;16.43;;;;;;;4.70;52.59;101126.19;10356926;28;20239;-71
2024/01/30 07:07:51;;;;;;;21.63;16.23;;;;;;;4.68;51.99;101184.66;10344532;28;20261;-72
2024/01/30 07:12:53;;;;;;;18.77;15.40;;;;;;;5.40;51.07;101044.84;10357190;28;20291;-71
2024/01/30 07:17:55;;;;;;;19.03;14.43;;;;;;;4.02;52.50;101319.97;10344422;28;20251;-72
2024/01/30 07:23:00;;;;;;;18.20;15.10;;;;;;;4.57;51.80;101211.91;10354175;28;20250;-69
2024/01/30 07:28:02;;;;;;;18.07;15.37;;;;;;;5.51;51.16;100997.91;10348276;28;20641;-69
2024/01/30 07:33:04;;;;;;;20.63;15.00;;;;;;;5.97;49.60;101062.50;10355437;28;20241;-69
2024/01/30 07:38:06;;;;;;;19.43;13.70;;;;;;;5.79;50.05;101098.50;10345616;28;20331;-72
2024/01/30 07:43:08;;;;;;;20.67;14.23;;;;;;;5.76;49.48;101158.03;10348844;28;20320;-70
2024/01/30 07:48:09;;;;;;;18.30;14.03;;;;;;;5.92;50.44;101046.06;10353563;28;20237;-70
2024/01/30 07:53:11;;;;;;;19.67;14.80;;;;;;;5.65;50.41;101189.88;10365953;28;20229;-70
2024/01/30 07:58:13;;;;;;;19.43;15.83;;;;;;;5.94;50.17;101137.16;10347045;28;20229;-69
2024/01/30 08:03:17;;;;;;;15.73;14.13;;;;;;;6.62;49.15;101068.72;10361005;28;20279;-69
2024/01/30 08:08:19;;;;;;;17.37;13.70;;;;;;;7.79;46.98;101105.94;10348127;28;20327;-69
2024/01/30 08:13:20;;;;;;;15.83;13.57;;;;;;;6.99;47.79;101233.38;10356977;28;20260;-72
2024/01/30 08:18:22;;;;;;;19.97;14.77;;;;;;;5.82;50.79;101255.00;10361467;28;20235;-69
2024/01/30 08:23:24;;;;;;;18.03;13.43;;;;;;;6.57;49.63;101148.06;10361592;28;20795;-70
2024/01/30 08:28:26;;;;;;;16.83;13.87;;;;;;;6.84;48.23;101282.50;10349690;28;20241;-69
2024/01/30 08:33:28;;;;;;;17.93;13.87;;;;;;;6.43;49.41;101297.22;10359736;28;20296;-69
2024/01/30 08:38:29;;;;;;;16.63;13.20;;;;;;;7.18;48.16;101215.88;10350846;28;20696;-69
2024/01/30 08:43:31;;;;;;;18.00;14.77;;;;;;;6.60;49.09;101285.28;10360159;28;20310;-70
2024/01/30 08:48:33;;;;;;;17.13;12.97;;;;;;;7.62;47.28;101197.97;10352012;28;20753;-70
2024/01/30 08:53:35;;;;;;;16.60;13.93;;;;;;;7.19;48.77;101132.38;10358196;28;20244;-69
2024/01/30 08:58:37;;;;;;;15.70;12.50;;;;;;;8.09;46.98;101118.44;10346241;28;20284;-69
2024/01/30 09:03:43;;;;;;;17.80;12.90;;;;;;;8.26;46.17;101239.59;10352237;28;20340;-70
2024/01/30 09:08:45;;;;;;;16.30;13.83;;;;;;;7.04;48.81;101208.16;10348293;28;22574;-71
2024/01/30 09:13:46;;;;;;;17.63;12.40;;;;;;;6.97;48.94;101253.94;10353884;28;20406;-72
2024/01/30 09:18:48;;;;;;;16.60;13.73;;;;;;;5.97;49.96;101396.47;10351844;28;20256;-69
2024/01/30 09:23:54;;;;;;;19.63;15.23;;;;;;;5.00;51.75;101379.56;10365381;28;20233;-70
2024/01/30 09:28:56;;;;;;;18.20;15.33;;;;;;;5.92;51.32;101157.66;10345995;28;20690;-69
2024/01/30 09:33:57;;;;;;;18.40;15.53;;;;;;;6.78;49.33;101147.31;10354926;28;20328;-69
2024/01/30 09:39:00;;;;;;;15.43;13.80;;;;;;;5.85;51.14;101247.63;10346255;28;20239;-70
2024/01/30 09:44:05;;;;;;;18.20;15.67;;;;;;;6.77;49.10;101238.75;10350584;28;20241;-72
2024/01/30 09:49:08;;;;;;;20.07;16.03;;;;;;;6.18;50.52;101246.00;10344669;28;20244;-71
2024/01/30 09:54:13;;;;;;;17.43;13.50;;;;;;;6.83;49.02;101269.34;10354857;28;20234;-72
2024/01/30 09:59:15;;;;;;;19.10;14.70;;;;;;;5.41;51.46;101381.91;10345356;28;20301;-72
2024/01/30 10:04:17;;;;;;;19.37;14.83;;;;;;;5.48;51.84;101332.69;10352343;28;20252;-72
2024/01/30 10:09:19;;;;;;;19.90;14.60;;;;;;;4.52;53.28;101438.56;10342201;28;20684;-71
2024/01/30 10:14:20;;;;;;;16.83;13.87;;;;;;;6.06;51.84;101144.16;10355587;28;20281;-71
2024/01/30 10:19:22;;;;;;;17.93;15.03;;;;;;;7.11;49.00;101252.81;10339779;28;20233;-71
2024/01/30 10:24:24;;;;;;;17.80;13.33;;;;;;;6.20;49.86;101405.38;10349936;28;20226;-72
2024/01/30 10:29:27;;;;;;;15.80;13.57;;;;;;;6.67;50.61;101225.31;10346644;28;20319;-70
2024/01/30 10:34:29;;;;;;;15.50;12.60;;;;;;;7.40;49.48;101140.38;10344895;28;20320;-71
2024/01/30 10:39:33;;;;;;;17.53;13.17;;;;;;;7.28;49.46;101216.81;10347474;28;20237;-68
2024/01/30 10:45:04;;;;;;;15.40;11.97;;;;;;;7.32;49.34;101270.66;10349015;28;20234;-69
2024/01/30 10:50:08;;;;;;;13.40;12.00;;;;;;;7.98;48.67;101169.16;10418397;23;20324;-37
2024/01/30 10:55:10;;;;;;;13.37;11.43;;;;;;;7.77;48.82;101205.66;10352263;28;20616;-38
2024/01/30 11:00:15;;;;;;;14.73;11.47;;;;;;;8.16;48.60;101169.38;10329926;23;20240;-36
2024/01/30 11:06:26;;;;;;;12.97;10.97;;;;;;;5.73;53.63;101227.31;10479976;27;20798;-64
2024/01/30 11:11:28;;;;;;;12.13;10.33;;;;;;;6.88;51.63;101193.47;10462290;28;20611;-65
2024/01/30 11:16:32;;;;;;;13.60;9.80;;;;;;;7.07;51.38;101162.69;10459793;28;20606;-64
2024/01/30 11:21:41;;;;;;;12.27;9.43;;;;;;;6.55;51.56;101345.97;10469240;28;20721;-65
2024/01/30 11:26:43;;;;;;;13.23;9.63;;;;;;;6.75;51.72;101243.28;10462252;28;20305;-65
2024/01/30 11:31:55;;;;;;;11.07;8.60;;;;;;;7.63;50.51;101173.03;10466654;28;20234;-64
2024/01/30 11:36:59;;;;;;;9.63;8.13;;;;;;;7.34;51.10;101242.94;10462291;28;20257;-64
2024/01/30 11:42:04;;;;;;;10.50;8.13;;;;;;;8.28;50.04;101143.47;10452679;28;20243;-65
2024/01/30 11:47:06;;;;;;;10.80;8.23;;;;;;;8.45;49.27;101227.31;10455902;28;20214;-65
2024/01/30 11:52:08;;;;;;;11.57;7.40;;;;;;;8.93;48.17;101248.00;10458054;28;20657;-65
2024/01/30 11:57:09;;;;;;;9.70;7.50;;;;;;;8.33;49.46;101212.41;10459745;28;20232;-65
2024/01/30 12:02:16;;;;;;;13.70;8.17;;;;;;;8.99;48.45;101180.72;10456882;28;20323;-64
2024/01/30 12:07:18;;;;;;;8.77;7.03;;;;;;;8.76;48.31;101289.50;10457565;28;20234;-64
2024/01/30 12:12:24;;;;;;;8.77;7.60;;;;;;;8.99;48.17;101219.91;10459188;28;20239;-64
2024/01/30 12:17:30;;;;;;;9.70;7.57;;;;;;;8.70;48.82;101267.84;10432174;28;20250;-64
2024/01/30 12:22:43;;;;;;;10.97;7.70;;;;;;;9.01;48.43;101245.47;10424740;28;20366;-64
2024/01/30 12:27:46;;;;;;;10.60;8.03;;;;;;;8.91;49.22;101212.59;10427454;28;20428;-65
2024/01/30 12:32:50;;;;;;;11.13;8.70;;;;;;;8.87;48.43;101317.94;10431709;28;20235;-64
2024/01/30 12:37:53;;;;;;;10.20;7.50;;;;;;;8.83;49.31;101213.25;10433555;28;20241;-63
2024/01/30 12:42:54;;;;;;;11.93;8.37;;;;;;;8.94;48.52;101297.72;10430633;28;20329;-64
2024/01/30 12:47:56;;;;;;;11.10;7.60;;;;;;;9.20;48.06;101222.44;10426711;28;20318;-63
2024/01/30 12:52:58;;;;;;;9.20;7.50;;;;;;;10.16;46.63;101273.28;10423003;28;20227;-66
2024/01/30 12:58:00;;;;;;;11.13;7.13;;;;;;;10.37;46.92;101189.28;10426348;28;20251;-64
2024/01/30 13:03:02;;;;;;;10.93;7.53;;;;;;;9.51;47.52;101346.03;10426044;28;20236;-64
2024/01/30 13:08:04;;;;;;;8.67;6.90;;;;;;;8.86;48.31;101369.63;10430639;28;20233;-65
2024/01/30 13:13:05;;;;;;;9.77;6.90;;;;;;;9.65;48.05;101272.66;10430651;28;20463;-65
2024/01/30 13:18:14;;;;;;;11.87;7.37;;;;;;;9.19;48.02;101331.09;10429803;28;20251;-65
2024/01/30 13:23:16;;;;;;;8.87;6.87;;;;;;;9.39;47.89;101318.63;10428176;28;20244;-64
2024/01/30 13:28:18;;;;;;;8.53;6.50;;;;;;;10.18;47.37;101182.19;10420514;28;20235;-65
2024/01/30 13:33:20;;;;;;;12.00;7.37;;;;;;;9.68;48.26;101224.22;10427970;28;20289;-64
2024/01/30 13:38:21;;;;;;;9.87;7.47;;;;;;;9.58;47.78;101291.06;10424382;28;20331;-64
2024/01/30 13:43:23;;;;;;;10.20;7.43;;;;;;;9.80;47.72;101210.72;10428566;28;20903;-64
2024/01/30 13:48:28;;;;;;;8.53;7.30;;;;;;;10.08;47.06;101282.03;10425166;28;20236;-64
2024/01/30 13:53:29;;;;;;;9.17;7.17;;;;;;;9.97;47.48;101268.81;10422765;28;20244;-64
2024/01/30 13:58:33;;;;;;;10.53;7.90;;;;;;;10.63;46.33;101195.59;10419683;28;20247;-64
2024/01/30 14:03:35;;;;;;;12.30;7.73;;;;;;;9.63;47.99;101319.19;10422601;28;20228;-64
2024/01/30 14:08:37;;;;;;;10.70;8.43;;;;;;;10.05;47.68;101257.41;10423635;28;20275;-64
2024/01/30 14:13:39;;;;;;;15.07;11.00;;;;;;;10.08;47.71;101273.16;10421564;28;20242;-63
2024/01/30 14:18:41;;;;;;;13.60;9.77;;;;;;;11.06;45.82;101260.19;10419070;28;20242;-66
2024/01/30 14:23:43;;;;;;;15.37;8.07;;;;;;;10.22;46.50;101369.00;10424585;28;20263;-64
2024/01/30 14:28:46;;;;;;;9.30;6.60;;;;;;;8.85;48.36;101459.53;10421425;28;20240;-64
2024/01/30 14:33:47;;;;;;;12.73;9.93;;;;;;;10.89;45.97;101243.09;10413710;28;20334;-64
2024/01/30 14:38:49;;;;;;;13.83;9.50;;;;;;;10.72;46.39;101267.97;10422990;28;20239;-65
2024/01/30 14:43:51;;;;;;;9.63;6.97;;;;;;;9.86;47.41;101336.66;10420773;28;20310;-65
2024/01/30 14:48:53;;;;;;;16.27;11.03;;;;;;;10.76;46.54;101266.72;10415312;28;20240;-69
2024/01/30 14:53:54;;;;;;;10.47;8.80;;;;;;;11.45;45.49;101247.31;10421605;28;20682;-66
2024/01/30 14:58:56;;;;;;;10.37;7.57;;;;;;;11.39;45.37;101309.59;10413878;28;20263;-66
2024/01/30 15:03:58;;;;;;;11.77;8.20;;;;;;;12.28;44.19;101227.28;10414133;28;20228;-66
2024/01/30 15:09:00;;;;;;;12.47;8.33;;;;;;;10.67;45.81;101413.00;10419960;28;20239;-66
2024/01/30 15:14:01;;;;;;;11.20;8.70;;;;;;;11.86;45.01;101287.06;10417517;28;20916;-66
2024/01/30 15:19:05;;;;;;;10.47;7.77;;;;;;;11.42;46.07;101285.16;10422222;28;20242;-66
2024/01/30 15:24:07;;;;;;;11.03;8.10;;;;;;;11.98;44.83;101274.25;10425924;28;20598;-67
2024/01/30 15:29:09;;;;;;;12.43;8.87;;;;;;;11.45;46.01;101244.63;10418690;28;20758;-66
2024/01/30 15:34:10;;;;;;;10.60;8.00;;;;;;;11.49;45.52;101279.16;10418381;28;20310;-66
2024/01/30 15:39:15;;;;;;;14.77;9.07;;;;;;;10.56;46.68;101381.03;10416193;28;20984;-66
2024/01/30 15:44:16;;;;;;;10.37;7.10;;;;;;;9.81;48.62;101320.19;10424210;28;20509;-66
2024/01/30 15:49:18;;;;;;;8.93;7.27;;;;;;;10.06;48.17;101299.22;10415454;28;20766;-67
2024/01/30 15:54:21;;;;;;;29.83;19.40;;;;;;;9.83;48.98;101285.31;10426904;28;20236;-66
2024/01/30 15:59:23;;;;;;;12.27;7.20;;;;;;;10.12;48.01;101256.69;10432174;28;20271;-66
2024/01/30 16:04:25;;;;;;;11.33;7.80;;;;;;;9.81;48.67;101285.41;10417889;28;20707;-68
2024/01/30 16:09:26;;;;;;;10.93;7.87;;;;;;;9.20;49.34;101339.97;10425618;28;20297;-66
2024/01/30 16:14:28;;;;;;;17.57;11.63;;;;;;;9.09;49.77;101305.34;10428410;28;20343;-65
2024/01/30 16:19:32;;;;;;;14.50;10.60;;;;;;;9.42;49.48;101288.13;10423380;28;20321;-62
2024/01/30 16:24:34;;;;;;;14.00;8.33;;;;;;;9.54;48.90;101299.50;10427300;28;20228;-65
2024/01/30 16:29:36;;;;;;;8.33;7.03;;;;;;;9.09;50.30;101267.97;10429443;28;22372;-66
2024/01/30 16:34:37;;;;;;;10.87;8.00;;;;;;;9.40;49.22;101274.91;10425450;28;20236;-68
2024/01/30 16:39:39;;;;;;;10.73;8.17;;;;;;;10.02;49.14;101167.59;10414168;28;20239;-65
2024/01/30 16:44:42;;;;;;;14.60;10.30;;;;;;;10.74;46.82;101290.94;10430816;28;20454;-67
2024/01/30 16:49:45;;;;;;;18.97;11.97;;;;;;;10.83;47.18;101314.19;10428117;28;20343;-71
2024/01/30 16:54:46;;;;;;;14.77;11.30;;;;;;;10.50;48.20;101262.03;10422265;28;20759;-71
2024/01/30 16:59:49;;;;;;;12.67;10.03;;;;;;;10.32;48.24;101316.28;10422669;28;20254;-70
2024/01/30 17:04:50;;;;;;;14.03;10.70;;;;;;;10.79;46.67;101349.44;10420487;28;20264;-70
2024/01/30 17:09:54;;;;;;;14.77;9.33;;;;;;;11.45;46.22;101255.34;10420694;28;20729;-68
2024/01/30 17:14:56;;;;;;;13.33;8.60;;;;;;;11.49;46.16;101295.25;10422463;28;20593;-75
2024/01/30 17:19:57;;;;;;;12.27;8.20;;;;;;;11.22;47.10;101291.66;10420462;28;20232;-69
2024/01/30 17:24:59;;;;;;;13.70;10.53;;;;;;;11.96;46.03;101252.94;10424143;28;20227;-69
2024/01/30 17:30:01;;;;;;;13.77;10.10;;;;;;;11.77;46.53;101258.50;10426813;28;20818;-69
2024/01/30 17:35:03;;;;;;;13.67;11.37;;;;;;;10.77;47.74;101373.66;10424896;28;20230;-67
2024/01/30 17:40:06;;;;;;;17.33;11.80;;;;;;;10.96;48.63;101295.06;10423590;28;20633;-66
2024/01/30 17:45:09;;;;;;;12.30;9.43;;;;;;;9.26;51.41;101365.28;10416630;28;20581;-66
2024/01/30 17:50:11;;;;;;;16.43;10.13;;;;;;;10.11;49.88;101272.88;10411538;28;20326;-66
2024/01/30 17:55:13;;;;;;;12.53;8.60;;;;;;;8.97;51.79;101323.31;10419558;28;20319;-65
2024/01/30 18:00:15;;;;;;;12.77;9.90;;;;;;;9.90;49.77;101310.47;10400127;28;20240;-67
2024/01/30 18:05:20;;;;;;;14.90;11.20;;;;;;;10.33;49.13;101237.72;10388535;28;20672;-67
2024/01/30 18:10:22;;;;;;;11.97;9.73;;;;;;;9.98;49.68;101294.56;10366183;28;20245;-66
2024/01/30 18:15:23;;;;;;;15.87;11.70;;;;;;;11.70;46.98;101241.34;10384593;28;20229;-67
2024/01/30 18:20:26;;;;;;;15.67;10.97;;;;;;;9.92;49.12;101448.41;10381584;28;20233;-67
2024/01/30 18:25:28;;;;;;;15.37;12.13;;;;;;;10.03;49.61;101348.47;10381567;28;20286;-67
2024/01/30 18:30:30;;;;;;;15.53;10.77;;;;;;;9.66;49.68;101431.19;10380166;28;20343;-66
2024/01/30 18:35:33;;;;;;;13.27;10.87;;;;;;;10.55;48.46;101301.75;10374228;28;20650;-67
2024/01/30 18:40:35;;;;;;;14.43;11.37;;;;;;;10.04;49.57;101335.94;10362988;28;20235;-66
2024/01/30 18:45:36;;;;;;;13.60;11.23;;;;;;;9.50;50.54;101360.41;10390041;28;20239;-66
2024/01/30 18:50:38;;;;;;;13.93;11.70;;;;;;;10.27;49.06;101294.50;10383061;28;20761;-67
2024/01/30 18:55:42;;;;;;;13.93;11.17;;;;;;;10.24;49.75;101245.78;10368681;28;20775;-67
2024/01/30 19:00:44;;;;;;;12.60;10.97;;;;;;;9.34;49.60;101464.28;10380690;28;20807;-67
2024/01/30 19:05:49;;;;;;;15.87;11.23;;;;;;;9.92;49.92;101298.66;10406942;28;20231;-66
2024/01/30 19:10:53;;;;;;;13.90;11.47;;;;;;;10.07;49.42;101303.56;10398247;28;20239;-65
2024/01/30 19:15:56;;;;;;;15.20;11.63;;;;;;;9.66;49.19;101402.63;10419288;28;20322;-70
2024/01/30 19:20:58;;;;;;;14.73;11.37;;;;;;;9.21;50.27;101438.66;10422377;28;20240;-70
2024/01/30 19:25:59;;;;;;;15.97;12.93;;;;;;;9.41;50.29;101355.88;10419072;28;20448;-71
2024/01/30 19:31:02;;;;;;;15.90;11.73;;;;;;;8.88;51.02;101406.91;10427570;28;20373;-69
2024/01/30 19:36:05;;;;;;;13.10;11.10;;;;;;;9.00;51.44;101304.38;10413997;28;20316;-71
2024/01/30 19:41:10;;;;;;;14.43;11.00;;;;;;;8.41;52.32;101393.97;10429486;28;20722;-70
2024/01/30 19:46:11;;;;;;;15.40;11.67;;;;;;;9.28;51.17;101256.47;10430367;28;20239;-67
2024/01/30 19:51:13;;;;;;;17.40;13.50;;;;;;;7.92;53.43;101389.13;10432682;28;20657;-69
2024/01/30 19:56:17;;;;;;;17.63;13.47;;;;;;;8.38;53.11;101287.53;10427686;28;20227;-68
2024/01/30 20:01:18;;;;;;;17.07;12.70;;;;;;;8.75;51.87;101325.19;10436597;28;20244;-67
2024/01/30 20:06:20;;;;;;;14.40;11.30;;;;;;;9.58;50.05;101328.50;10402983;28;20232;-69
2024/01/30 20:11:22;;;;;;;15.50;11.60;;;;;;;9.73;49.67;101336.06;10424970;28;20331;-70
2024/01/30 20:16:23;;;;;;;15.93;12.10;;;;;;;9.85;49.08;101356.34;10400383;28;20232;-69
2024/01/30 20:21:25;;;;;;;16.50;12.57;;;;;;;9.25;49.48;101473.09;10431388;28;20232;-68
2024/01/30 20:26:27;;;;;;;17.00;11.70;;;;;;;10.73;47.96;101312.50;10417990;28;20244;-67
2024/01/30 20:31:31;;;;;;;17.10;11.73;;;;;;;9.74;49.27;101421.47;10423515;28;20236;-72
2024/01/30 20:36:33;;;;;;;15.40;11.50;;;;;;;10.67;47.56;101396.94;10403587;28;20223;-68
2024/01/30 20:41:38;;;;;;;12.63;10.73;;;;;;;10.78;47.67;101394.13;10418741;28;20229;-69
2024/01/30 20:46:43;;;;;;;12.70;10.27;;;;;;;10.26;48.49;101374.91;10415367;28;20231;-69
2024/01/30 20:51:45;;;;;;;14.13;10.50;;;;;;;10.61;47.89;101371.56;10426408;28;20357;-68
2024/01/30 20:56:47;;;;;;;11.57;10.10;;;;;;;10.38;48.21;101408.56;10411064;28;20381;-69
2024/01/30 21:01:48;;;;;;;12.50;9.97;;;;;;;9.96;48.78;101448.97;10428155;28;20446;-72
2024/01/30 21:06:50;;;;;;;11.93;10.03;;;;;;;10.89;47.22;101352.91;10423226;28;20319;-71
2024/01/30 21:11:52;;;;;;;12.80;10.80;;;;;;;10.71;47.82;101358.16;10420109;28;20232;-69
2024/01/30 21:16:54;;;;;;;14.57;11.73;;;;;;;10.55;47.64;101419.50;10401771;28;20222;-68
2024/01/30 21:21:55;;;;;;;14.37;10.83;;;;;;;10.10;48.69;101461.91;10421570;28;20236;-67
2024/01/30 21:26:57;;;;;;;14.33;11.67;;;;;;;11.06;46.94;101408.34;10402672;28;20855;-71
2024/01/30 21:31:59;;;;;;;16.03;12.23;;;;;;;10.63;47.76;101431.19;10432007;28;20231;-69
2024/01/30 21:37:00;;;;;;;14.80;11.77;;;;;;;10.60;48.23;101377.94;10419674;28;20243;-69
2024/01/30 21:42:03;;;;;;;13.07;10.57;;;;;;;10.25;48.74;101424.91;10428074;28;20223;-71
2024/01/30 21:47:05;;;;;;;15.10;11.23;;;;;;;10.26;48.91;101413.22;10401156;28;20694;-69
2024/01/30 21:52:08;;;;;;;13.50;11.13;;;;;;;9.86;49.56;101454.31;10423018;28;20618;-68
2024/01/30 21:57:10;;;;;;;16.53;12.43;;;;;;;9.73;49.92;101456.38;10425420;28;20204;-68
2024/01/30 22:02:12;;;;;;;13.87;11.37;;;;;;;10.78;47.96;101364.66;10427107;28;20243;-69
2024/01/30 22:07:14;;;;;;;17.33;11.53;;;;;;;10.93;47.87;101332.84;10418190;28;20233;-70
2024/01/30 22:12:16;;;;;;;14.73;11.30;;;;;;;10.80;47.47;101423.41;10433705;28;20711;-69
2024/01/30 22:17:18;;;;;;;14.67;10.40;;;;;;;10.16;49.05;101479.25;10423201;28;20259;-70
2024/01/30 22:22:20;;;;;;;15.33;10.87;;;;;;;11.26;47.43;101335.91;10403295;28;20259;-68
2024/01/30 22:27:22;;;;;;;17.03;12.00;;;;;;;10.37;48.52;101521.91;10419320;28;20236;-68
2024/01/30 22:32:23;;;;;;;14.90;11.27;;;;;;;11.51;47.11;101339.69;10424572;28;20280;-67
2024/01/30 22:37:25;;;;;;;14.23;11.53;;;;;;;11.49;46.95;101403.34;10423321;28;20710;-67
2024/01/30 22:42:27;;;;;;;16.33;11.33;;;;;;;12.27;45.59;101375.91;10421735;28;20707;-66
2024/01/30 22:47:28;;;;;;;14.17;9.87;;;;;;;9.29;50.62;101512.78;10422905;28;20236;-67
2024/01/30 22:52:30;;;;;;;11.63;9.30;;;;;;;11.78;45.74;101461.31;10423062;28;20331;-64
2024/01/30 22:57:33;;;;;;;16.63;10.70;;;;;;;11.21;47.09;101470.34;10421364;28;20240;-64